TFM - Tactical Decision Aid
ID: Runway Winds: CIG/VIS Threshold:

KCAE - Columbia Metro, SC, US

Updated at: 0902 UTC 26 Jan 2020
Latest TAF at: 0528 UTC 26 Jan 2020

TAF Board

Time0856Z 26/10Z 26/11Z 26/12Z 26/13Z 26/14Z 26/15Z 26/16Z 26/17Z 26/18Z 26/19Z 26/20Z 26/21Z 26/22Z>>
Type OBS PRVL PRVL PRVL PRVL PRVL PRVL PRVL PRVL PRVL PRVL PRVL PRVL PRVL
VIS 10 >6 >6 >6 >6 >6 >6 >6 >6 >6 >6 >6 >6 >6
CIG 250 250 250 250 250 -- -- -- -- -- -- -- -- --
Cover OVC BKN BKN BKN BKN SCT SCT SCT SCT SCT SCT SCT SCT SCT
FltCat VFR VFR VFR VFR VFR VFR VFR VFR VFR VFR VFR VFR VFR VFR
WX -- -- -- -- -- -- -- -- -- -- -- -- -- --
WDir VRB 260 260 260 260 290 290 290 290 290 290 290 290 290
WSpd 0 4 4 4 4 7 7 7 7 7 7 7 7 7
WGst -- -- -- -- -- -- -- -- -- -- -- -- -- --

TDA Impact Legend

  None Marginal Slight Moderate High
Visibility (sm) >5 3≤X≤5 2≤X<3 0.5≤X<2 <0.5
Ceiling (100 ft) >30 10≤X≤30 6≤X<10 2≤X<6 <2
Wind Speed (kt) <15 15≤X<25 25≤X<30 ≥30
Wind Gust (kt) <15 15≤X<25 25≤X<35 ≥35
Weather No Wx Reported VCTS -TS,-FZRA TS,FZRA +TS,+FZRA
TAF
KCAE 260528Z 2606/2706 26004KT P6SM BKN250
  FM261400 29007KT P6SM SCT250
  FM270500 VRB03KT P6SM BKN080 OVC150


METAR
KCAE 260856Z 00000KT 10SM SCT200 OVC250 04/01 A3002 RMK AO2 SLP166 T00390006 58008
KCAE 260756Z 22004KT 10SM SCT200 BKN250 04/01 A3004 RMK AO2 SLP173 T00390006
KCAE 260656Z 24004KT 10SM SCT200 OVC250 04/01 A3003 RMK AO2 SLP169 T00390011
KCAE 260556Z 23004KT 10SM SCT250 04/01 A3004 RMK AO2 SLP174 T00440011 10078 20044 51002

Radar Display
Forecast Discussion